createdAt,value
2023-04-16T00:01:47.523Z,7.66
2023-04-16T00:04:15.124Z,7.66
2023-04-16T00:06:42.701Z,7.65
2023-04-16T00:09:10.767Z,7.64
2023-04-16T00:11:38.226Z,7.65
2023-04-16T00:14:05.736Z,7.63
2023-04-16T00:16:33.292Z,7.60
2023-04-16T00:19:00.928Z,7.57
2023-04-16T00:21:28.881Z,7.58
2023-04-16T00:23:56.262Z,7.60
2023-04-16T00:26:23.535Z,7.58
2023-04-16T00:28:51.222Z,7.53
2023-04-16T00:31:18.593Z,7.53
2023-04-16T00:33:45.953Z,7.52
2023-04-16T00:36:13.249Z,7.51
2023-04-16T00:38:40.488Z,7.50
2023-04-16T00:41:07.742Z,7.44
2023-04-16T00:43:35.096Z,7.45
2023-04-16T00:46:08.851Z,7.43
2023-04-16T00:48:39.861Z,7.46
2023-04-16T00:51:09.321Z,7.44
2023-04-16T00:53:37.949Z,7.45
2023-04-16T00:56:07.523Z,7.46
2023-04-16T00:58:35.755Z,7.48
2023-04-16T01:01:03.330Z,7.49
2023-04-16T01:03:51.517Z,7.48
2023-04-16T01:06:19.814Z,7.50
2023-04-16T01:08:48.720Z,7.51
2023-04-16T01:11:16.428Z,7.51
2023-04-16T01:13:43.854Z,7.54
2023-04-16T01:16:14.760Z,7.54
2023-04-16T01:18:42.617Z,7.53
2023-04-16T01:21:11.144Z,7.53
2023-04-16T01:23:39.492Z,7.57
2023-04-16T01:26:06.816Z,7.56
2023-04-16T01:28:35.149Z,7.59
2023-04-16T01:31:02.462Z,7.59
2023-04-16T01:33:56.160Z,7.59
2023-04-16T01:36:23.489Z,7.63
2023-04-16T01:38:50.807Z,7.66
2023-04-16T01:41:18.088Z,7.67
2023-04-16T01:43:45.474Z,7.66
2023-04-16T01:46:24.742Z,7.62
2023-04-16T01:48:54.733Z,7.67
2023-04-16T01:51:22.637Z,7.65
2023-04-16T01:53:51.199Z,7.68
2023-04-16T01:56:19.850Z,7.70
2023-04-16T01:58:53.523Z,7.70
2023-04-16T02:01:21.208Z,7.69
2023-04-16T02:03:49.699Z,7.71
2023-04-16T02:06:17.083Z,7.70
2023-04-16T02:08:44.675Z,7.75
2023-04-16T02:11:11.932Z,7.75
2023-04-16T02:13:40.440Z,7.78
2023-04-16T02:16:08.922Z,7.74
2023-04-16T02:18:55.030Z,7.77
2023-04-16T02:21:24.281Z,7.86
2023-04-16T02:23:53.009Z,7.85
2023-04-16T02:26:26.636Z,7.83
2023-04-16T02:28:56.192Z,7.80
2023-04-16T02:31:28.846Z,7.77
2023-04-16T02:33:57.882Z,7.75
2023-04-16T02:36:25.625Z,7.79
2023-04-16T02:38:55.160Z,7.76
2023-04-16T02:41:22.957Z,7.72
2023-04-16T02:43:50.766Z,7.72
2023-04-16T02:46:18.243Z,7.72
2023-04-16T02:48:45.896Z,7.70
2023-04-16T02:51:13.746Z,7.71
2023-04-16T02:53:45.482Z,7.70
2023-04-16T02:56:13.460Z,7.70
2023-04-16T02:58:40.836Z,7.73
2023-04-16T03:01:08.577Z,7.75
2023-04-16T03:03:36.146Z,7.76
2023-04-16T03:06:03.546Z,7.76
2023-04-16T03:08:30.760Z,7.72
2023-04-16T03:10:58.009Z,7.75
2023-04-16T03:13:25.351Z,7.74
2023-04-16T03:15:52.705Z,7.74
2023-04-16T03:18:20.355Z,7.74
2023-04-16T03:20:54.055Z,7.72
2023-04-16T03:23:21.420Z,7.73
2023-04-16T03:25:48.711Z,7.74
2023-04-16T03:28:18.664Z,7.75
2023-04-16T03:30:55.642Z,7.76
2023-04-16T03:33:22.997Z,7.74
2023-04-16T03:36:00.905Z,7.76
2023-04-16T03:38:31.156Z,7.74
2023-04-16T03:41:05.149Z,7.70
2023-04-16T03:43:35.120Z,7.71
2023-04-16T03:46:02.575Z,7.69
2023-04-16T03:48:29.958Z,7.67
2023-04-16T03:50:58.278Z,7.68
2023-04-16T03:53:25.742Z,7.70
2023-04-16T03:55:53.260Z,7.69
2023-04-16T03:58:21.966Z,7.69
2023-04-16T04:00:49.313Z,7.69
2023-04-16T04:03:18.558Z,7.70
2023-04-16T04:05:48.565Z,7.72
2023-04-16T04:08:21.355Z,7.70
2023-04-16T04:10:48.671Z,7.70
2023-04-16T04:13:16.188Z,7.77
2023-04-16T04:15:45.028Z,7.71
2023-04-16T04:18:13.419Z,7.71
2023-04-16T04:20:41.365Z,7.68
2023-04-16T04:23:09.203Z,7.72
2023-04-16T04:25:36.861Z,7.70
2023-04-16T04:28:04.515Z,7.74
2023-04-16T04:30:36.054Z,7.72
2023-04-16T04:33:04.149Z,7.68
2023-04-16T04:35:31.561Z,7.75
2023-04-16T04:37:59.718Z,7.78
2023-04-16T04:40:28.496Z,7.75
2023-04-16T04:43:01.024Z,7.77
2023-04-16T04:45:30.364Z,7.80
2023-04-16T04:47:59.406Z,7.78
2023-04-16T04:50:26.793Z,7.83
2023-04-16T04:52:54.040Z,7.77
2023-04-16T04:55:22.484Z,7.74
2023-04-16T04:57:52.222Z,7.74
2023-04-16T05:00:21.256Z,7.68
2023-04-16T05:02:54.008Z,7.70
2023-04-16T05:05:21.784Z,7.73
2023-04-16T05:07:50.581Z,7.71
2023-04-16T05:10:17.915Z,7.70
2023-04-16T05:12:48.918Z,7.76
2023-04-16T05:15:18.884Z,7.74
2023-04-16T05:17:46.466Z,7.77
2023-04-16T05:20:13.858Z,7.74
2023-04-16T05:22:41.448Z,7.74
2023-04-16T05:25:09.308Z,7.76
2023-04-16T05:27:37.536Z,7.81
2023-04-16T05:30:05.886Z,7.86
2023-04-16T05:32:34.471Z,7.94
2023-04-16T05:35:01.683Z,7.84
2023-04-16T05:37:30.537Z,7.87
2023-04-16T05:39:57.893Z,7.82
2023-04-16T05:42:25.172Z,7.86
2023-04-16T05:44:53.352Z,7.84
2023-04-16T05:47:25.805Z,7.88
2023-04-16T05:49:53.212Z,7.93
2023-04-16T05:52:20.711Z,7.90
2023-04-16T05:54:47.990Z,7.89
2023-04-16T05:57:15.879Z,7.86
2023-04-16T05:59:43.321Z,7.88
2023-04-16T06:02:12.019Z,7.86
2023-04-16T06:04:39.451Z,7.95
2023-04-16T06:07:07.508Z,7.93
2023-04-16T06:09:36.212Z,7.95
2023-04-16T06:12:04.001Z,7.97
2023-04-16T06:14:31.205Z,7.98
2023-04-16T06:16:58.481Z,8.00
2023-04-16T06:19:25.750Z,7.98
2023-04-16T06:21:53.813Z,8.01
2023-04-16T06:24:22.761Z,8.03
2023-04-16T06:26:50.215Z,8.03
2023-04-16T06:29:17.510Z,8.03
2023-04-16T06:31:44.954Z,7.99
2023-04-16T06:34:12.570Z,8.03
2023-04-16T06:36:39.857Z,8.04
2023-04-16T06:39:07.190Z,8.05
2023-04-16T06:41:34.640Z,8.06
2023-04-16T06:44:02.027Z,8.05
2023-04-16T06:46:39.979Z,8.09
2023-04-16T06:49:07.623Z,8.10
2023-04-16T06:51:36.157Z,8.15
2023-04-16T06:54:04.308Z,8.16
2023-04-16T06:56:32.290Z,8.14
2023-04-16T06:59:00.971Z,8.15
2023-04-16T07:01:31.116Z,8.14
2023-04-16T07:03:59.324Z,8.19
2023-04-16T07:06:27.210Z,8.25
2023-04-16T07:08:54.432Z,8.29
2023-04-16T07:11:22.471Z,8.25
2023-04-16T07:13:51.211Z,8.30
2023-04-16T07:16:18.760Z,8.32
2023-04-16T07:18:46.538Z,8.33
2023-04-16T07:21:13.991Z,8.32
2023-04-16T07:23:41.811Z,8.29
2023-04-16T07:26:09.172Z,8.41
2023-04-16T07:28:47.842Z,8.46
2023-04-16T07:31:15.218Z,8.49
2023-04-16T07:33:44.573Z,8.43
2023-04-16T07:36:13.199Z,8.46
2023-04-16T07:38:40.593Z,8.51
2023-04-16T07:41:08.428Z,8.48
2023-04-16T07:43:36.104Z,8.53
2023-04-16T07:46:03.440Z,8.54
2023-04-16T07:48:30.718Z,8.56
2023-04-16T07:50:58.598Z,8.51
2023-04-16T07:53:26.068Z,8.56
2023-04-16T07:55:53.814Z,8.63
2023-04-16T07:58:21.178Z,8.60
2023-04-16T08:00:50.379Z,8.61
2023-04-16T08:03:18.497Z,8.58
2023-04-16T08:05:46.043Z,8.65
2023-04-16T08:08:14.421Z,8.64
2023-04-16T08:10:41.950Z,8.72
2023-04-16T08:13:09.702Z,8.70
2023-04-16T08:15:38.119Z,8.71
2023-04-16T08:18:07.093Z,8.74
2023-04-16T08:20:34.595Z,8.72
2023-04-16T08:23:01.804Z,8.79
2023-04-16T08:25:29.337Z,8.76
2023-04-16T08:27:56.664Z,8.81
2023-04-16T08:30:24.094Z,8.88
2023-04-16T08:32:51.635Z,8.88
2023-04-16T08:35:18.911Z,8.95
2023-04-16T08:37:48.312Z,8.89
2023-04-16T08:40:17.655Z,8.88
2023-04-16T08:43:15.582Z,8.95
2023-04-16T08:45:48.617Z,9.02
2023-04-16T08:48:16.276Z,9.04
2023-04-16T08:50:46.778Z,9.02
2023-04-16T08:53:28.531Z,9.01
2023-04-16T08:56:03.765Z,9.08
2023-04-16T08:58:37.962Z,9.15
2023-04-16T09:01:06.863Z,9.11
2023-04-16T09:03:36.677Z,9.24
2023-04-16T09:06:07.515Z,9.29
2023-04-16T09:08:36.229Z,9.29
2023-04-16T09:11:04.858Z,9.28
2023-04-16T09:13:32.769Z,9.25
2023-04-16T09:16:01.210Z,9.21
2023-04-16T09:18:31.107Z,9.20
2023-04-16T09:20:59.608Z,9.25
2023-04-16T09:23:26.932Z,9.27
2023-04-16T09:25:57.107Z,9.33
2023-04-16T09:28:45.932Z,9.30
2023-04-16T09:31:20.431Z,9.30
2023-04-16T09:34:09.665Z,9.41
2023-04-16T09:36:37.326Z,9.45
2023-04-16T09:39:04.753Z,9.40
2023-04-16T09:41:36.280Z,9.40
2023-04-16T09:44:05.715Z,9.48
2023-04-16T09:46:45.192Z,9.51
2023-04-16T09:49:18.888Z,9.59
2023-04-16T09:51:52.802Z,9.59
2023-04-16T09:54:21.364Z,9.64
2023-04-16T09:56:48.703Z,9.71
2023-04-16T09:59:24.406Z,9.75
2023-04-16T10:02:14.583Z,9.75
2023-04-16T10:04:54.885Z,9.75
2023-04-16T10:07:23.344Z,9.83
2023-04-16T10:09:52.601Z,9.86
2023-04-16T10:12:22.275Z,9.83
2023-04-16T10:14:50.433Z,9.96
2023-04-16T10:17:20.395Z,9.96
2023-04-16T10:19:49.900Z,9.93
2023-04-16T10:22:19.636Z,9.97
2023-04-16T10:24:49.818Z,10.02
2023-04-16T10:27:17.256Z,10.11
2023-04-16T10:29:45.935Z,10.30
2023-04-16T10:32:21.895Z,10.37
2023-04-16T10:34:55.822Z,10.36
2023-04-16T10:37:32.320Z,10.29
2023-04-16T10:40:28.178Z,10.32
2023-04-16T10:43:02.002Z,10.43
2023-04-16T10:45:38.577Z,10.53
2023-04-16T10:48:10.197Z,10.52
2023-04-16T10:50:41.530Z,10.54
2023-04-16T10:53:29.775Z,10.54
2023-04-16T10:56:06.488Z,10.58
2023-04-16T10:58:37.228Z,10.75
2023-04-16T11:01:24.428Z,10.85
2023-04-16T11:03:55.168Z,10.89
2023-04-16T11:06:29.567Z,10.99
2023-04-16T11:08:56.932Z,10.93
2023-04-16T11:11:38.608Z,10.96
2023-04-16T11:14:10.936Z,11.00
2023-04-16T11:16:42.602Z,11.02
2023-04-16T11:19:20.431Z,11.02
2023-04-16T11:21:51.694Z,11.03
2023-04-16T11:24:18.971Z,11.08
2023-04-16T11:26:53.944Z,11.16
2023-04-16T11:29:21.458Z,11.31
2023-04-16T11:31:54.035Z,11.50
2023-04-16T11:34:22.766Z,11.66
2023-04-16T11:36:52.449Z,11.74
2023-04-16T11:39:20.010Z,11.70
2023-04-16T11:41:52.504Z,11.69
2023-04-16T11:44:38.354Z,11.63
2023-04-16T11:47:08.341Z,11.64
2023-04-16T11:49:35.720Z,11.65
2023-04-16T11:52:03.030Z,11.56
2023-04-16T11:54:34.877Z,11.55
2023-04-16T11:57:04.800Z,11.55
2023-04-16T11:59:33.374Z,11.66
2023-04-16T12:02:00.819Z,11.78
2023-04-16T12:04:29.447Z,11.93
2023-04-16T12:07:14.630Z,12.06
2023-04-16T12:09:44.975Z,12.06
2023-04-16T12:12:31.664Z,12.08
2023-04-16T12:15:05.398Z,12.18
2023-04-16T12:17:36.389Z,12.26
2023-04-16T12:20:16.230Z,12.30
2023-04-16T12:22:49.666Z,12.40
2023-04-16T12:25:20.647Z,12.50
2023-04-16T12:27:56.407Z,12.49
2023-04-16T12:30:26.834Z,12.52
2023-04-16T12:33:19.679Z,12.50
2023-04-16T12:35:47.392Z,12.46
2023-04-16T12:38:15.509Z,12.38
2023-04-16T12:40:43.207Z,12.27
2023-04-16T12:43:13.817Z,12.19
2023-04-16T12:45:41.668Z,12.12
2023-04-16T12:48:12.031Z,12.00
2023-04-16T12:50:39.803Z,11.86
2023-04-16T12:53:07.265Z,11.75
2023-04-16T12:55:36.058Z,11.68
2023-04-16T12:58:03.848Z,11.58
2023-04-16T13:00:34.263Z,11.54
2023-04-16T13:03:01.801Z,11.49
2023-04-16T13:05:29.450Z,11.44
2023-04-16T13:07:57.280Z,11.43
2023-04-16T13:10:27.896Z,11.45
2023-04-16T13:12:55.476Z,11.48
2023-04-16T13:15:23.456Z,11.47
2023-04-16T13:17:51.400Z,11.55
2023-04-16T13:20:18.704Z,11.66
2023-04-16T13:22:46.211Z,11.75
2023-04-16T13:25:13.420Z,11.88
2023-04-16T13:27:41.386Z,12.00
2023-04-16T13:30:10.638Z,12.16
2023-04-16T13:32:38.774Z,12.25
2023-04-16T13:35:06.528Z,12.36
2023-04-16T13:37:34.955Z,12.32
2023-04-16T13:40:02.413Z,12.40
2023-04-16T13:42:29.752Z,12.38
2023-04-16T13:45:01.348Z,12.34
2023-04-16T13:47:29.166Z,12.31
2023-04-16T13:50:04.584Z,12.29
2023-04-16T13:52:31.862Z,12.38
2023-04-16T13:55:00.634Z,12.49
2023-04-16T13:57:36.443Z,12.52
2023-04-16T14:00:04.674Z,12.59
2023-04-16T14:02:32.262Z,12.80
2023-04-16T14:05:01.542Z,13.17
2023-04-16T14:07:29.223Z,13.30
2023-04-16T14:09:59.183Z,13.25
2023-04-16T14:12:27.643Z,13.20
2023-04-16T14:14:56.487Z,13.13
2023-04-16T14:17:25.493Z,13.02
2023-04-16T14:19:54.740Z,12.95
2023-04-16T14:22:22.525Z,12.96
2023-04-16T14:24:49.800Z,13.12
2023-04-16T14:27:17.277Z,13.32
2023-04-16T14:29:48.055Z,13.40
2023-04-16T14:32:15.339Z,13.39
2023-04-16T14:34:46.806Z,13.25
2023-04-16T14:37:17.934Z,13.07
2023-04-16T14:39:52.413Z,12.95
2023-04-16T14:42:22.438Z,13.11
2023-04-16T14:44:49.828Z,13.13
2023-04-16T14:47:20.164Z,13.10
2023-04-16T14:49:48.164Z,13.12
2023-04-16T14:52:19.781Z,13.13
2023-04-16T14:54:48.616Z,13.15
2023-04-16T14:57:17.150Z,13.03
2023-04-16T14:59:50.828Z,12.96
2023-04-16T15:02:20.061Z,12.87
2023-04-16T15:04:47.744Z,12.80
2023-04-16T15:07:15.172Z,12.61
2023-04-16T15:09:44.089Z,12.52
2023-04-16T15:12:15.314Z,12.43
2023-04-16T15:14:43.776Z,12.40
2023-04-16T15:17:15.422Z,12.35
2023-04-16T15:19:43.745Z,12.32
2023-04-16T15:22:16.011Z,12.31
2023-04-16T15:24:45.020Z,12.33
2023-04-16T15:27:14.190Z,12.35
2023-04-16T15:29:41.670Z,12.36
2023-04-16T15:32:09.611Z,12.31
2023-04-16T15:34:37.917Z,12.27
2023-04-16T15:37:05.319Z,12.20
2023-04-16T15:39:32.667Z,12.13
2023-04-16T15:42:02.273Z,12.09
2023-04-16T15:44:31.551Z,12.08
2023-04-16T15:47:00.232Z,12.07
2023-04-16T15:49:28.790Z,12.07
2023-04-16T15:51:58.588Z,11.98
2023-04-16T15:54:27.151Z,11.92
2023-04-16T15:56:56.601Z,11.87
2023-04-16T15:59:23.948Z,11.81
2023-04-16T16:01:52.792Z,11.74
2023-04-16T16:04:22.822Z,11.73
2023-04-16T16:06:51.114Z,11.81
2023-04-16T16:09:25.680Z,11.79
2023-04-16T16:11:55.493Z,11.78
2023-04-16T16:14:23.350Z,11.80
2023-04-16T16:16:51.749Z,11.70
2023-04-16T16:19:21.662Z,11.66
2023-04-16T16:21:49.472Z,11.67
2023-04-16T16:24:16.732Z,11.66
2023-04-16T16:26:45.628Z,11.71
2023-04-16T16:29:13.083Z,11.74
2023-04-16T16:31:42.052Z,11.88
2023-04-16T16:34:17.090Z,11.93
2023-04-16T16:36:47.961Z,11.96
2023-04-16T16:39:15.277Z,11.97
2023-04-16T16:41:48.216Z,11.90
2023-04-16T16:44:15.664Z,11.84
2023-04-16T16:46:44.095Z,11.81
2023-04-16T16:49:14.590Z,11.82
2023-04-16T16:51:42.408Z,11.76
2023-04-16T16:54:11.028Z,11.78
2023-04-16T16:56:38.429Z,11.77
2023-04-16T16:59:06.257Z,11.68
2023-04-16T17:01:33.820Z,11.57
2023-04-16T17:04:02.798Z,11.54
2023-04-16T17:06:30.457Z,11.49
2023-04-16T17:08:58.650Z,11.56
2023-04-16T17:11:27.214Z,11.48
2023-04-16T17:13:55.938Z,11.37
2023-04-16T17:16:24.540Z,11.24
2023-04-16T17:18:53.008Z,11.16
2023-04-16T17:21:21.643Z,11.08
2023-04-16T17:23:52.066Z,11.06
2023-04-16T17:26:19.282Z,11.09
2023-04-16T17:28:54.405Z,11.10
2023-04-16T17:31:23.127Z,11.13
2023-04-16T17:33:51.195Z,11.08
2023-04-16T17:36:23.018Z,11.16
2023-04-16T17:38:50.616Z,11.10
2023-04-16T17:41:18.161Z,11.08
2023-04-16T17:43:50.116Z,11.08
2023-04-16T17:46:17.516Z,11.15
2023-04-16T17:48:47.939Z,11.15
2023-04-16T17:51:16.604Z,11.10
2023-04-16T17:53:45.373Z,11.08
2023-04-16T17:56:14.556Z,11.04
2023-04-16T17:58:43.340Z,11.08
2023-04-16T18:01:11.362Z,11.07
2023-04-16T18:03:40.244Z,11.08
2023-04-16T18:06:07.773Z,11.03
2023-04-16T18:08:36.935Z,11.10
2023-04-16T18:11:08.813Z,11.03
2023-04-16T18:13:38.220Z,10.91
2023-04-16T18:16:07.478Z,10.84
2023-04-16T18:18:34.878Z,10.81
2023-04-16T18:21:03.128Z,10.74
2023-04-16T18:23:31.666Z,10.70
2023-04-16T18:25:58.929Z,10.68
2023-04-16T18:28:27.686Z,10.71
2023-04-16T18:30:58.751Z,10.71
2023-04-16T18:33:52.273Z,10.65
2023-04-16T18:36:13.971Z,10.60
2023-04-16T18:38:56.917Z,10.56
2023-04-16T18:41:27.192Z,10.52
2023-04-16T18:43:56.976Z,10.49
2023-04-16T18:46:25.153Z,10.46
2023-04-16T18:48:53.337Z,10.41
2023-04-16T18:51:21.312Z,10.36
2023-04-16T18:53:48.789Z,10.38
2023-04-16T18:56:16.109Z,10.36
2023-04-16T18:58:43.979Z,10.37
2023-04-16T19:01:21.191Z,10.30
2023-04-16T19:03:48.664Z,10.36
2023-04-16T19:06:17.800Z,10.37
2023-04-16T19:08:45.183Z,10.32
2023-04-16T19:11:14.236Z,10.27
2023-04-16T19:13:43.421Z,10.23
2023-04-16T19:16:12.594Z,10.19
2023-04-16T19:18:41.065Z,10.20
2023-04-16T19:21:10.869Z,10.20
2023-04-16T19:23:38.990Z,10.18
2023-04-16T19:26:07.501Z,10.19
2023-04-16T19:28:34.860Z,10.18
2023-04-16T19:31:04.229Z,10.15
2023-04-16T19:33:33.199Z,10.05
2023-04-16T19:36:01.727Z,10.04
2023-04-16T19:38:31.839Z,10.04
2023-04-16T19:40:59.108Z,9.98
2023-04-16T19:43:28.003Z,9.95
2023-04-16T19:45:57.568Z,9.98
2023-04-16T19:48:24.965Z,9.92
2023-04-16T19:50:52.246Z,9.84
2023-04-16T19:53:21.834Z,9.79
2023-04-16T19:55:50.739Z,9.75
2023-04-16T19:58:19.018Z,9.70
2023-04-16T20:00:47.276Z,9.63
2023-04-16T20:03:14.634Z,9.60
2023-04-16T20:05:42.024Z,9.64
2023-04-16T20:08:10.382Z,9.62
2023-04-16T20:10:37.672Z,9.59
2023-04-16T20:13:06.592Z,9.51
2023-04-16T20:15:37.941Z,9.49
2023-04-16T20:18:08.731Z,9.52
2023-04-16T20:20:37.897Z,9.47
2023-04-16T20:23:05.706Z,9.44
2023-04-16T20:25:32.966Z,9.42
2023-04-16T20:28:00.337Z,9.38
2023-04-16T20:30:29.436Z,9.33
2023-04-16T20:32:57.300Z,9.28
2023-04-16T20:35:24.614Z,9.28
2023-04-16T20:37:53.337Z,9.18
2023-04-16T20:40:22.504Z,9.10
2023-04-16T20:42:52.098Z,9.07
2023-04-16T20:45:20.963Z,9.05
2023-04-16T20:47:48.272Z,9.08
2023-04-16T20:50:15.883Z,9.13
2023-04-16T20:52:43.216Z,9.00
2023-04-16T20:55:10.836Z,8.83
2023-04-16T20:57:38.099Z,8.71
2023-04-16T21:00:10.083Z,8.62
2023-04-16T21:02:37.899Z,8.58
2023-04-16T21:05:09.001Z,8.55
2023-04-16T21:07:36.305Z,8.53
2023-04-16T21:10:03.791Z,8.47
2023-04-16T21:12:31.309Z,8.49
2023-04-16T21:14:58.546Z,8.45
2023-04-16T21:17:25.760Z,8.48
2023-04-16T21:19:53.132Z,8.52
2023-04-16T21:22:22.034Z,8.52
2023-04-16T21:24:49.745Z,8.58
2023-04-16T21:27:17.042Z,8.57
2023-04-16T21:29:44.282Z,8.58
2023-04-16T21:32:12.028Z,8.59
2023-04-16T21:34:39.254Z,8.59
2023-04-16T21:37:08.520Z,8.53
2023-04-16T21:39:36.006Z,8.51
2023-04-16T21:42:03.299Z,8.52
2023-04-16T21:44:30.648Z,8.50
2023-04-16T21:46:58.059Z,8.53
2023-04-16T21:49:25.835Z,8.53
2023-04-16T21:51:59.018Z,8.51
2023-04-16T21:54:27.518Z,8.53
2023-04-16T21:56:57.070Z,8.53
2023-04-16T21:59:24.307Z,8.46
2023-04-16T22:01:51.647Z,8.43
2023-04-16T22:04:18.997Z,8.47
2023-04-16T22:06:46.323Z,8.46
2023-04-16T22:09:13.664Z,8.39
2023-04-16T22:11:41.097Z,8.35
2023-04-16T22:14:08.813Z,8.39
2023-04-16T22:16:37.025Z,8.39
2023-04-16T22:19:04.334Z,8.35
2023-04-16T22:21:31.738Z,8.37
2023-04-16T22:23:59.212Z,8.42
2023-04-16T22:26:26.568Z,8.42
2023-04-16T22:28:53.790Z,8.34
2023-04-16T22:31:21.138Z,8.42
2023-04-16T22:33:48.462Z,8.39
2023-04-16T22:36:16.014Z,8.36
2023-04-16T22:38:44.308Z,8.36
2023-04-16T22:41:12.053Z,8.40
2023-04-16T22:43:39.491Z,8.41
2023-04-16T22:46:07.982Z,8.43
2023-04-16T22:48:38.156Z,8.46
2023-04-16T22:51:08.671Z,8.46
2023-04-16T22:53:39.125Z,8.47
2023-04-16T22:56:07.762Z,8.50
2023-04-16T22:58:35.141Z,8.56
2023-04-16T23:01:02.465Z,8.53
2023-04-16T23:03:30.641Z,8.53
2023-04-16T23:05:58.060Z,8.54
2023-04-16T23:08:25.357Z,8.54
2023-04-16T23:10:54.565Z,8.56
2023-04-16T23:13:22.249Z,8.55
2023-04-16T23:15:51.048Z,8.59
2023-04-16T23:18:18.383Z,8.60
2023-04-16T23:20:45.787Z,8.62
2023-04-16T23:23:13.258Z,8.61
2023-04-16T23:25:42.065Z,8.58
2023-04-16T23:28:09.705Z,8.59
2023-04-16T23:30:38.078Z,8.65
2023-04-16T23:33:05.497Z,8.63
2023-04-16T23:35:32.821Z,8.55
2023-04-16T23:38:03.065Z,8.56
2023-04-16T23:40:30.854Z,8.54
2023-04-16T23:42:58.067Z,8.53
2023-04-16T23:45:25.840Z,8.54
2023-04-16T23:47:53.162Z,8.49
2023-04-16T23:50:22.366Z,8.46
2023-04-16T23:52:49.903Z,8.46
2023-04-16T23:55:17.263Z,8.45
2023-04-16T23:57:44.509Z,8.39
